Time;durP1;ratioP1;P1;durP2;ratioP2;P2;SDS_P1;SDS_P2;PMS_P1;PMS_P2;Temp;Humidity;BMP_temperature;BMP_pressure;BME280_temperature;BME280_humidity;BME280_pressure;Samples;Min_cycle;Max_cycle;Signal;HPM_P1;HPM_P2
2022/12/02 00:09:42;;;;;;;11.45;7.70;;;;;;;20.34;53.64;100968.34;20658378;28;20057;-81
2022/12/02 00:19:42;;;;;;;10.88;7.57;;;;;;;20.32;54.20;100973.69;20668492;28;20050;-79
2022/12/02 00:29:42;;;;;;;11.60;7.35;;;;;;;20.28;54.12;100970.41;20658324;28;20485;-80
2022/12/02 00:39:43;;;;;;;12.38;8.00;;;;;;;20.29;53.88;100974.72;20660277;28;20053;-80
2022/12/02 00:49:43;;;;;;;10.45;7.53;;;;;;;20.28;54.17;100961.69;20662222;28;20052;-81
2022/12/02 00:59:44;;;;;;;12.27;7.47;;;;;;;20.26;53.97;100958.28;20674219;28;20042;-80
2022/12/02 01:09:44;;;;;;;10.43;7.55;;;;;;;20.25;53.87;100959.22;20663006;28;20049;-80
2022/12/02 01:19:45;;;;;;;11.60;7.45;;;;;;;20.25;53.63;100954.84;20658663;28;20057;-79
2022/12/02 01:29:45;;;;;;;11.30;7.55;;;;;;;20.23;53.77;100954.09;20659606;28;20038;-79
2022/12/02 01:39:46;;;;;;;11.07;7.72;;;;;;;20.23;53.89;100940.09;20658080;28;20147;-79
2022/12/02 01:49:46;;;;;;;11.52;7.40;;;;;;;20.22;54.12;100935.78;20656845;28;20042;-80
2022/12/02 01:59:47;;;;;;;11.43;8.13;;;;;;;20.22;54.24;100943.66;20651491;28;20042;-80
2022/12/02 02:09:47;;;;;;;11.77;8.07;;;;;;;20.18;53.92;100945.66;20649585;28;20077;-81
2022/12/02 02:19:48;;;;;;;12.70;8.10;;;;;;;20.20;54.03;100942.91;20641464;28;20107;-80
2022/12/02 02:29:48;;;;;;;10.73;7.55;;;;;;;20.17;54.10;100948.38;20646512;28;21237;-79
2022/12/02 02:39:49;;;;;;;11.43;7.75;;;;;;;20.17;53.90;100954.47;20659209;28;20057;-81
2022/12/02 02:49:49;;;;;;;11.53;7.17;;;;;;;20.15;54.21;100958.97;20656457;28;20088;-81
2022/12/02 02:59:53;;;;;;;11.82;7.75;;;;;;;20.14;53.72;100952.03;20655478;28;20327;-80
2022/12/02 03:09:54;;;;;;;9.65;7.10;;;;;;;20.15;53.49;100943.22;20656909;28;20049;-80
2022/12/02 03:19:54;;;;;;;9.02;6.68;;;;;;;20.14;53.73;100934.50;20674217;28;20038;-79
2022/12/02 03:30:01;;;;;;;10.02;6.72;;;;;;;20.13;53.72;100938.06;20677527;28;20038;-79
2022/12/02 03:40:02;;;;;;;9.13;6.68;;;;;;;20.13;53.47;100938.06;20671797;28;20058;-80
2022/12/02 03:50:03;;;;;;;9.70;6.75;;;;;;;20.13;53.62;100924.06;20670612;28;20038;-82
2022/12/02 04:00:05;;;;;;;8.75;6.45;;;;;;;20.13;53.20;100931.97;20663461;28;21256;-80
2022/12/02 04:10:06;;;;;;;9.02;6.82;;;;;;;20.12;53.42;100931.09;20639890;28;20046;-79
2022/12/02 04:20:07;;;;;;;8.50;6.40;;;;;;;20.14;53.51;100931.84;20651544;28;20054;-80
2022/12/02 04:30:08;;;;;;;8.80;6.20;;;;;;;20.13;53.65;100940.69;20671018;28;20049;-79
2022/12/02 04:40:09;;;;;;;8.40;6.70;;;;;;;20.12;53.51;100943.41;20670736;28;20049;-79
2022/12/02 04:50:10;;;;;;;8.82;6.53;;;;;;;20.09;53.25;100935.72;20671646;28;20049;-79
2022/12/02 05:00:11;;;;;;;8.52;5.90;;;;;;;20.09;53.83;100939.22;20649569;28;20050;-81
2022/12/02 05:10:12;;;;;;;8.88;5.97;;;;;;;20.10;53.77;100932.16;20663668;28;20056;-82
2022/12/02 05:20:12;;;;;;;9.00;5.53;;;;;;;20.19;53.32;100949.13;20658188;28;20401;-86
2022/12/02 05:30:13;;;;;;;26.98;8.65;;;;;;;20.32;55.08;100944.75;20663472;28;20064;-83
2022/12/02 05:40:14;;;;;;;31.27;9.13;;;;;;;20.42;55.66;100950.25;20646385;28;20284;-83
2022/12/02 05:50:14;;;;;;;25.23;9.18;;;;;;;20.49;54.91;100935.75;20652629;28;20100;-86
2022/12/02 06:00:17;;;;;;;27.55;8.65;;;;;;;20.47;50.81;100941.13;20638200;28;20038;-84
2022/12/02 06:10:23;;;;;;;26.77;8.30;;;;;;;20.56;52.56;100954.63;20656875;28;20070;-84
2022/12/02 06:20:32;;;;;;;16.63;7.95;;;;;;;20.61;53.13;100963.88;20643860;28;20057;-83
2022/12/02 06:30:33;;;;;;;19.60;9.02;;;;;;;20.44;47.50;100966.78;20640804;28;21461;-84
2022/12/02 06:40:35;;;;;;;23.67;8.85;;;;;;;20.61;51.48;100973.56;20652827;28;20043;-84
2022/12/02 06:50:46;;;;;;;18.03;7.47;;;;;;;20.68;51.88;100976.63;20670132;28;20330;-84
2022/12/02 07:00:47;;;;;;;12.90;7.32;;;;;;;20.70;51.96;100980.03;20661706;28;20050;-83
2022/12/02 07:10:47;;;;;;;10.60;6.23;;;;;;;20.75;51.66;100983.22;20662710;28;20100;-84
2022/12/02 07:20:48;;;;;;;14.98;7.25;;;;;;;20.84;52.31;100974.72;20664689;28;20389;-84
2022/12/02 07:31:19;;;;;;;14.10;6.82;;;;;;;20.89;52.31;100984.94;20667902;28;20647;-83
2022/12/02 07:41:21;;;;;;;10.67;6.40;;;;;;;20.96;52.29;100988.88;20664609;28;20061;-84
2022/12/02 07:51:22;;;;;;;12.10;5.68;;;;;;;21.00;52.83;101002.66;20686938;28;20053;-84
2022/12/02 08:01:23;;;;;;;12.38;6.15;;;;;;;21.07;53.09;100990.78;20683030;28;20120;-83
2022/12/02 08:11:23;;;;;;;13.65;5.88;;;;;;;21.13;53.30;101000.91;20679907;28;20034;-84
2022/12/02 08:21:23;;;;;;;11.05;6.43;;;;;;;21.19;53.04;101003.09;20683649;28;20057;-85
2022/12/02 08:31:24;;;;;;;12.48;6.20;;;;;;;21.24;53.41;101002.81;20680493;28;20050;-83
2022/12/02 08:41:34;;;;;;;10.02;5.75;;;;;;;21.28;53.21;101007.72;20677627;28;20053;-83
2022/12/02 08:51:35;;;;;;;12.60;5.88;;;;;;;21.32;52.91;101011.00;20687098;28;20052;-83
2022/12/02 09:01:35;;;;;;;9.43;5.70;;;;;;;21.33;52.35;101010.06;20668844;28;20046;-84
2022/12/02 09:43:15;;;;;;;;;;;;;;;21.20;52.13;101006.56;20650446;28;21482;-88
2022/12/02 09:53:17;;;;;;;8.63;5.63;;;;;;;21.19;51.68;101002.25;20673036;28;19964;-85
2022/12/02 10:03:22;;;;;;;9.50;6.10;;;;;;;21.14;51.70;100997.31;20656547;28;20046;-83
2022/12/02 10:13:23;;;;;;;9.48;5.70;;;;;;;21.11;52.24;100995.72;20674642;28;20037;-90
2022/12/02 10:23:26;;;;;;;13.52;6.95;;;;;;;21.17;51.87;101002.34;20680904;28;20054;-87
2022/12/02 10:33:29;;;;;;;8.63;5.30;;;;;;;21.16;51.88;100989.31;20675439;28;20046;-90
2022/12/02 10:43:29;;;;;;;11.90;5.80;;;;;;;21.15;52.07;100985.81;20669873;28;20129;-87
2022/12/02 10:53:31;;;;;;;8.45;5.85;;;;;;;21.16;51.86;100982.22;20677432;28;20044;-85
2022/12/02 11:03:32;;;;;;;7.17;5.27;;;;;;;21.20;52.24;100974.97;20690460;28;20049;-88
2022/12/02 11:13:57;;;;;;;8.35;5.65;;;;;;;21.14;51.70;100973.63;20692529;28;20038;-86
2022/12/02 11:24:22;;;;;;;8.77;5.70;;;;;;;21.14;51.64;100964.84;20686901;28;20567;-86
2022/12/02 11:34:25;;;;;;;8.75;5.60;;;;;;;21.14;51.23;100959.59;20683187;28;20143;-87
2022/12/02 11:44:29;;;;;;;7.77;5.53;;;;;;;21.13;51.57;100956.13;20676757;28;20421;-87
2022/12/02 11:54:31;;;;;;;8.45;5.78;;;;;;;21.19;51.95;100955.72;20653844;28;20046;-88
2022/12/02 12:04:32;;;;;;;12.67;5.27;;;;;;;21.20;51.57;100952.13;20687416;28;20042;-88
2022/12/02 12:14:51;;;;;;;6.90;5.22;;;;;;;21.17;51.31;100944.41;20701478;28;21709;-88
2022/12/02 12:24:52;;;;;;;9.93;5.50;;;;;;;21.16;51.15;100952.44;20690673;28;20137;-88
2022/12/02 12:34:52;;;;;;;38.33;6.05;;;;;;;21.16;51.16;100955.06;20682608;28;20132;-89
2022/12/02 12:44:52;;;;;;;44.78;8.85;;;;;;;20.97;48.52;100952.84;20671670;28;20126;-87
2022/12/02 12:54:53;;;;;;;34.97;7.78;;;;;;;20.95;49.60;100952.94;20689808;28;20133;-89
2022/12/02 13:04:54;;;;;;;18.95;7.25;;;;;;;21.02;49.82;100954.22;20634514;28;20058;-91
2022/12/02 13:14:55;;;;;;;14.45;6.93;;;;;;;21.03;49.53;100955.91;20673551;28;20116;-86
2022/12/02 13:24:55;;;;;;;18.60;5.82;;;;;;;21.05;50.83;100951.38;20680937;28;20124;-90
2022/12/02 13:34:57;;;;;;;13.27;6.60;;;;;;;21.07;51.13;100959.19;20663738;28;20057;-90
2022/12/02 13:44:58;;;;;;;13.90;6.15;;;;;;;21.03;50.63;100963.81;20662335;28;20049;-90
2022/12/02 13:54:59;;;;;;;15.23;5.93;;;;;;;21.00;51.02;100973.69;20654802;28;20050;-87
2022/12/02 14:04:59;;;;;;;13.32;6.35;;;;;;;21.09;51.12;100979.19;20650410;28;20453;-87
2022/12/02 14:14:59;;;;;;;15.70;6.20;;;;;;;21.06;51.17;100971.47;20668608;28;20042;-87
2022/12/02 14:25:01;;;;;;;13.20;6.20;;;;;;;21.10;51.90;100975.63;20643901;28;20072;-89
2022/12/02 14:35:04;;;;;;;17.27;7.00;;;;;;;21.15;51.91;100983.19;20643941;28;20057;-92
2022/12/02 14:45:06;;;;;;;8.80;5.97;;;;;;;21.16;51.97;100984.88;20645324;28;20038;-82
2022/12/02 14:55:07;;;;;;;15.57;7.07;;;;;;;21.11;52.02;100986.97;20610018;28;20034;-84
2022/12/02 15:05:13;;;;;;;9.90;6.20;;;;;;;21.09;51.74;100997.63;20660538;28;20030;-85
2022/12/02 15:15:14;;;;;;;8.75;5.90;;;;;;;21.14;52.19;100999.94;20679039;28;20513;-85
2022/12/02 15:25:15;;;;;;;10.93;5.88;;;;;;;21.13;52.07;101021.09;20678028;28;20046;-86
2022/12/02 15:35:16;;;;;;;9.50;6.20;;;;;;;21.11;52.22;101019.41;20691540;28;20043;-84
2022/12/02 15:45:16;;;;;;;10.05;6.40;;;;;;;21.05;52.25;101022.44;20666996;28;20488;-85
2022/12/02 15:55:17;;;;;;;9.30;6.13;;;;;;;21.01;52.07;101031.50;20663766;28;20065;-84
2022/12/02 16:05:17;;;;;;;8.48;5.93;;;;;;;20.96;52.61;101033.63;20666909;28;20089;-84
2022/12/02 16:15:18;;;;;;;8.90;5.90;;;;;;;21.01;52.14;101030.69;20641607;28;20047;-84
2022/12/02 16:25:18;;;;;;;9.98;6.88;;;;;;;21.00;52.22;101045.63;20661326;28;20065;-83
2022/12/02 16:35:26;;;;;;;8.30;5.90;;;;;;;20.94;52.76;101046.03;20667270;28;20034;-83
2022/12/02 16:45:26;;;;;;;7.47;5.45;;;;;;;20.91;52.35;101049.72;20669401;28;20521;-83
2022/12/02 16:55:27;;;;;;;8.73;5.90;;;;;;;20.91;51.97;101047.06;20661853;28;20046;-82
2022/12/02 17:05:27;;;;;;;8.13;5.85;;;;;;;20.87;52.27;101064.03;20691818;28;20069;-87
2022/12/02 17:15:27;;;;;;;10.63;6.47;;;;;;;20.83;52.32;101073.06;20672199;28;20096;-87
2022/12/02 17:25:28;;;;;;;7.72;5.95;;;;;;;20.83;52.09;101078.31;20672828;28;20120;-84
2022/12/02 17:35:28;;;;;;;8.32;5.72;;;;;;;20.83;52.22;101082.75;20661339;28;20050;-84
2022/12/02 17:45:29;;;;;;;9.45;5.70;;;;;;;20.77;52.34;101078.72;20664350;28;20065;-86
2022/12/02 17:55:29;;;;;;;8.15;5.53;;;;;;;20.84;52.20;101080.00;20654428;28;20133;-87
2022/12/02 18:05:31;;;;;;;12.38;5.93;;;;;;;20.91;52.00;101083.06;20669713;28;20109;-86
2022/12/02 18:15:31;;;;;;;12.60;8.93;;;;;;;21.01;52.53;101084.19;20669373;28;21544;-86
2022/12/02 18:25:31;;;;;;;20.23;11.90;;;;;;;21.09;52.61;101092.41;20658556;28;20042;-85
2022/12/02 18:35:32;;;;;;;21.63;16.05;;;;;;;21.17;52.95;101089.28;20675517;28;20500;-84
2022/12/02 18:45:32;;;;;;;20.08;15.82;;;;;;;21.20;53.46;101089.09;20703652;28;20042;-87
2022/12/02 18:55:33;;;;;;;20.80;16.08;;;;;;;21.21;53.19;101089.91;20668317;28;20038;-88
2022/12/02 19:05:33;;;;;;;20.27;14.48;;;;;;;21.20;53.20;101094.34;20642576;28;20126;-83
2022/12/02 19:15:33;;;;;;;26.63;15.00;;;;;;;21.19;53.10;101083.91;20663532;28;20041;-79
2022/12/02 19:25:34;;;;;;;22.50;14.13;;;;;;;21.19;53.32;101087.38;20667411;28;20046;-80
2022/12/02 19:35:36;;;;;;;19.85;13.05;;;;;;;21.16;52.92;101086.75;20645097;28;20047;-83
2022/12/02 19:45:36;;;;;;;16.48;12.40;;;;;;;21.18;52.54;101088.31;20670912;28;20480;-82
2022/12/02 19:55:36;;;;;;;15.27;11.52;;;;;;;21.14;52.72;101091.25;20607604;28;20043;-83
2022/12/02 20:05:37;;;;;;;16.63;11.52;;;;;;;21.17;52.61;101089.28;20688165;28;20137;-80
2022/12/02 20:15:38;;;;;;;15.20;11.05;;;;;;;21.18;52.31;101095.38;20690161;28;20081;-81
2022/12/02 20:25:41;;;;;;;18.05;10.60;;;;;;;21.13;52.66;101094.84;20664882;28;20041;-88
2022/12/02 20:35:45;;;;;;;19.08;10.48;;;;;;;21.11;52.94;101105.47;20651048;28;21170;-85
2022/12/02 20:45:45;;;;;;;14.27;10.10;;;;;;;21.02;53.29;101108.69;20664719;28;20403;-84
2022/12/02 20:55:45;;;;;;;15.20;10.02;;;;;;;20.97;53.35;101118.69;20661009;28;20061;-89
2022/12/02 21:05:46;;;;;;;16.40;9.05;;;;;;;21.02;53.23;101124.50;20620235;28;20045;-88
2022/12/02 21:15:46;;;;;;;12.35;8.70;;;;;;;21.00;53.20;101127.25;20653529;28;20056;-88
2022/12/02 21:25:47;;;;;;;11.45;8.20;;;;;;;21.01;52.92;101144.72;20668309;28;20034;-88
2022/12/02 21:35:47;;;;;;;18.52;9.10;;;;;;;21.00;53.55;101144.84;20640158;28;20042;-83
2022/12/02 21:45:48;;;;;;;12.55;7.78;;;;;;;20.88;53.12;101146.47;20640167;28;20405;-82
2022/12/02 21:55:48;;;;;;;12.05;7.90;;;;;;;20.78;53.06;101152.31;20650049;28;20053;-82
2022/12/02 22:05:48;;;;;;;17.40;8.10;;;;;;;20.73;53.28;101140.41;20643287;28;20050;-79
2022/12/02 22:15:49;;;;;;;13.32;8.23;;;;;;;20.58;53.19;101145.66;20657573;28;20050;-80
2022/12/02 22:25:49;;;;;;;10.77;7.80;;;;;;;20.53;53.23;101141.59;20669010;28;20064;-80
2022/12/02 22:35:50;;;;;;;11.43;7.85;;;;;;;20.42;53.53;101123.88;20619932;28;20394;-80
2022/12/02 22:45:50;;;;;;;9.68;7.45;;;;;;;20.36;53.84;101121.63;20659823;28;20511;-80
2022/12/02 22:55:51;;;;;;;10.73;7.63;;;;;;;20.31;54.13;101119.25;20657997;28;20046;-80
2022/12/02 23:05:51;;;;;;;10.77;6.97;;;;;;;20.30;53.62;101130.75;20636578;28;20526;-80
2022/12/02 23:15:52;;;;;;;10.55;7.55;;;;;;;20.30;53.83;101117.59;20641661;28;20053;-80
2022/12/02 23:25:52;;;;;;;10.82;7.03;;;;;;;20.26;53.65;101123.97;20666595;28;20070;-79
2022/12/02 23:35:52;;;;;;;10.23;7.10;;;;;;;20.21;53.67;101126.88;20651156;28;20047;-78
2022/12/02 23:45:53;;;;;;;9.98;7.03;;;;;;;20.23;53.73;101137.31;20659926;28;20098;-78
2022/12/02 23:55:53;;;;;;;9.88;7.07;;;;;;;20.21;53.91;101147.09;20661361;28;20413;-81
